sensor_id;sensor_type;location;lat;lon;timestamp;P1;durP1;ratioP1;P2;durP2;ratioP2
46116;SDS011;32591;48.102;11.772;2023-02-18T00:01:09;4.13;;;1.75;;
46116;SDS011;32591;48.102;11.772;2023-02-18T00:03:38;3.58;;;1.77;;
46116;SDS011;32591;48.102;11.772;2023-02-18T00:06:09;3.63;;;1.63;;
46116;SDS011;32591;48.102;11.772;2023-02-18T00:08:38;2.45;;;1.75;;
46116;SDS011;32591;48.102;11.772;2023-02-18T00:11:06;2.65;;;1.70;;
46116;SDS011;32591;48.102;11.772;2023-02-18T00:13:34;3.83;;;1.80;;
46116;SDS011;32591;48.102;11.772;2023-02-18T00:16:01;3.63;;;1.77;;
46116;SDS011;32591;48.102;11.772;2023-02-18T00:18:30;4.60;;;1.90;;
46116;SDS011;32591;48.102;11.772;2023-02-18T00:20:57;3.15;;;1.98;;
46116;SDS011;32591;48.102;11.772;2023-02-18T00:23:25;8.65;;;3.10;;
46116;SDS011;32591;48.102;11.772;2023-02-18T00:25:57;4.25;;;1.98;;
46116;SDS011;32591;48.102;11.772;2023-02-18T00:28:25;4.03;;;1.63;;
46116;SDS011;32591;48.102;11.772;2023-02-18T00:30:53;3.42;;;2.00;;
46116;SDS011;32591;48.102;11.772;2023-02-18T00:33:20;4.55;;;1.92;;
46116;SDS011;32591;48.102;11.772;2023-02-18T00:35:48;2.83;;;1.48;;
46116;SDS011;32591;48.102;11.772;2023-02-18T00:38:16;5.32;;;1.83;;
46116;SDS011;32591;48.102;11.772;2023-02-18T00:40:43;2.20;;;1.42;;
46116;SDS011;32591;48.102;11.772;2023-02-18T00:43:10;2.50;;;1.58;;
46116;SDS011;32591;48.102;11.772;2023-02-18T00:45:36;3.97;;;1.90;;
46116;SDS011;32591;48.102;11.772;2023-02-18T00:48:04;4.45;;;1.95;;
46116;SDS011;32591;48.102;11.772;2023-02-18T00:50:31;4.05;;;1.58;;
46116;SDS011;32591;48.102;11.772;2023-02-18T00:52:59;3.97;;;1.42;;
46116;SDS011;32591;48.102;11.772;2023-02-18T00:55:26;3.97;;;1.83;;
46116;SDS011;32591;48.102;11.772;2023-02-18T00:57:53;2.50;;;1.60;;
46116;SDS011;32591;48.102;11.772;2023-02-18T01:00:20;3.08;;;1.77;;
46116;SDS011;32591;48.102;11.772;2023-02-18T01:02:49;3.05;;;1.38;;
46116;SDS011;32591;48.102;11.772;2023-02-18T01:05:18;2.30;;;1.35;;
46116;SDS011;32591;48.102;11.772;2023-02-18T01:07:45;3.22;;;1.30;;
46116;SDS011;32591;48.102;11.772;2023-02-18T01:10:13;2.30;;;1.52;;
46116;SDS011;32591;48.102;11.772;2023-02-18T01:12:40;3.95;;;1.42;;
46116;SDS011;32591;48.102;11.772;2023-02-18T01:15:08;6.13;;;1.85;;
46116;SDS011;32591;48.102;11.772;2023-02-18T01:17:37;5.00;;;1.70;;
46116;SDS011;32591;48.102;11.772;2023-02-18T01:20:05;2.85;;;1.60;;
46116;SDS011;32591;48.102;11.772;2023-02-18T01:22:34;3.85;;;1.75;;
46116;SDS011;32591;48.102;11.772;2023-02-18T01:25:01;2.58;;;1.52;;
46116;SDS011;32591;48.102;11.772;2023-02-18T01:27:30;3.85;;;2.03;;
46116;SDS011;32591;48.102;11.772;2023-02-18T01:29:57;2.40;;;1.48;;
46116;SDS011;32591;48.102;11.772;2023-02-18T01:32:24;2.78;;;1.60;;
46116;SDS011;32591;48.102;11.772;2023-02-18T01:34:51;3.88;;;1.65;;
46116;SDS011;32591;48.102;11.772;2023-02-18T01:37:18;3.42;;;2.10;;
46116;SDS011;32591;48.102;11.772;2023-02-18T01:39:45;5.18;;;1.70;;
46116;SDS011;32591;48.102;11.772;2023-02-18T01:42:16;2.40;;;1.50;;
46116;SDS011;32591;48.102;11.772;2023-02-18T01:44:47;3.45;;;1.70;;
46116;SDS011;32591;48.102;11.772;2023-02-18T01:47:15;2.70;;;1.92;;
46116;SDS011;32591;48.102;11.772;2023-02-18T01:49:43;2.85;;;1.63;;
46116;SDS011;32591;48.102;11.772;2023-02-18T01:52:15;2.70;;;1.67;;
46116;SDS011;32591;48.102;11.772;2023-02-18T01:54:46;2.83;;;1.65;;
46116;SDS011;32591;48.102;11.772;2023-02-18T01:57:17;3.88;;;1.70;;
46116;SDS011;32591;48.102;11.772;2023-02-18T01:59:51;5.38;;;1.80;;
46116;SDS011;32591;48.102;11.772;2023-02-18T02:02:23;4.28;;;1.95;;
46116;SDS011;32591;48.102;11.772;2023-02-18T02:04:53;2.70;;;1.50;;
46116;SDS011;32591;48.102;11.772;2023-02-18T02:07:21;6.30;;;1.88;;
46116;SDS011;32591;48.102;11.772;2023-02-18T02:09:51;2.88;;;1.60;;
46116;SDS011;32591;48.102;11.772;2023-02-18T02:12:24;2.75;;;1.55;;
46116;SDS011;32591;48.102;11.772;2023-02-18T02:15:17;3.22;;;1.70;;
46116;SDS011;32591;48.102;11.772;2023-02-18T02:17:58;2.60;;;1.60;;
46116;SDS011;32591;48.102;11.772;2023-02-18T02:20:58;3.17;;;1.90;;
46116;SDS011;32591;48.102;11.772;2023-02-18T02:27:20;5.35;;;1.85;;
46116;SDS011;32591;48.102;11.772;2023-02-18T02:30:00;2.88;;;1.38;;
46116;SDS011;32591;48.102;11.772;2023-02-18T02:33:13;3.53;;;1.60;;
46116;SDS011;32591;48.102;11.772;2023-02-18T02:36:26;3.55;;;1.55;;
46116;SDS011;32591;48.102;11.772;2023-02-18T02:39:03;2.30;;;1.10;;
46116;SDS011;32591;48.102;11.772;2023-02-18T02:41:42;4.70;;;2.38;;
46116;SDS011;32591;48.102;11.772;2023-02-18T02:44:18;2.03;;;1.30;;
46116;SDS011;32591;48.102;11.772;2023-02-18T02:46:49;2.42;;;1.30;;
46116;SDS011;32591;48.102;11.772;2023-02-18T02:49:23;2.05;;;1.10;;
46116;SDS011;32591;48.102;11.772;2023-02-18T02:52:06;1.60;;;1.02;;
46116;SDS011;32591;48.102;11.772;2023-02-18T02:54:39;1.35;;;1.00;;
46116;SDS011;32591;48.102;11.772;2023-02-18T02:57:07;3.50;;;1.33;;
46116;SDS011;32591;48.102;11.772;2023-02-18T03:00:12;2.50;;;1.20;;
46116;SDS011;32591;48.102;11.772;2023-02-18T03:02:47;1.58;;;1.08;;
46116;SDS011;32591;48.102;11.772;2023-02-18T03:05:52;3.50;;;1.35;;
46116;SDS011;32591;48.102;11.772;2023-02-18T03:08:40;1.23;;;1.10;;
46116;SDS011;32591;48.102;11.772;2023-02-18T03:11:15;1.98;;;1.02;;
46116;SDS011;32591;48.102;11.772;2023-02-18T03:13:47;2.78;;;1.52;;
46116;SDS011;32591;48.102;11.772;2023-02-18T03:16:25;1.65;;;1.00;;
46116;SDS011;32591;48.102;11.772;2023-02-18T03:19:01;1.40;;;1.10;;
46116;SDS011;32591;48.102;11.772;2023-02-18T03:21:34;1.83;;;1.13;;
46116;SDS011;32591;48.102;11.772;2023-02-18T03:24:09;2.40;;;1.25;;
46116;SDS011;32591;48.102;11.772;2023-02-18T03:26:43;2.17;;;1.35;;
46116;SDS011;32591;48.102;11.772;2023-02-18T03:29:17;2.10;;;0.73;;
46116;SDS011;32591;48.102;11.772;2023-02-18T03:31:47;1.73;;;0.95;;
46116;SDS011;32591;48.102;11.772;2023-02-18T03:34:19;4.13;;;1.33;;
46116;SDS011;32591;48.102;11.772;2023-02-18T03:36:51;2.78;;;1.23;;
46116;SDS011;32591;48.102;11.772;2023-02-18T03:39:20;1.80;;;1.17;;
46116;SDS011;32591;48.102;11.772;2023-02-18T03:41:51;1.77;;;1.00;;
46116;SDS011;32591;48.102;11.772;2023-02-18T03:44:19;2.13;;;1.08;;
46116;SDS011;32591;48.102;11.772;2023-02-18T03:46:46;1.90;;;1.20;;
46116;SDS011;32591;48.102;11.772;2023-02-18T03:49:13;2.42;;;1.52;;
46116;SDS011;32591;48.102;11.772;2023-02-18T03:51:41;1.80;;;1.13;;
46116;SDS011;32591;48.102;11.772;2023-02-18T03:54:08;1.98;;;1.10;;
46116;SDS011;32591;48.102;11.772;2023-02-18T03:56:39;1.20;;;0.80;;
46116;SDS011;32591;48.102;11.772;2023-02-18T03:59:07;2.00;;;1.23;;
46116;SDS011;32591;48.102;11.772;2023-02-18T04:01:35;2.33;;;1.20;;
46116;SDS011;32591;48.102;11.772;2023-02-18T04:04:02;1.73;;;1.05;;
46116;SDS011;32591;48.102;11.772;2023-02-18T04:06:29;2.67;;;1.33;;
46116;SDS011;32591;48.102;11.772;2023-02-18T04:08:56;3.75;;;1.33;;
46116;SDS011;32591;48.102;11.772;2023-02-18T04:11:23;2.15;;;1.25;;
46116;SDS011;32591;48.102;11.772;2023-02-18T04:13:52;2.72;;;1.15;;
46116;SDS011;32591;48.102;11.772;2023-02-18T04:16:19;1.73;;;1.20;;
46116;SDS011;32591;48.102;11.772;2023-02-18T04:18:46;3.25;;;1.52;;
46116;SDS011;32591;48.102;11.772;2023-02-18T04:21:12;2.35;;;1.45;;
46116;SDS011;32591;48.102;11.772;2023-02-18T04:23:39;5.10;;;1.40;;
46116;SDS011;32591;48.102;11.772;2023-02-18T04:26:06;2.28;;;1.23;;
46116;SDS011;32591;48.102;11.772;2023-02-18T04:28:33;2.35;;;1.20;;
46116;SDS011;32591;48.102;11.772;2023-02-18T04:31:02;1.90;;;1.20;;
46116;SDS011;32591;48.102;11.772;2023-02-18T04:33:29;2.72;;;1.33;;
46116;SDS011;32591;48.102;11.772;2023-02-18T04:35:56;3.22;;;1.25;;
46116;SDS011;32591;48.102;11.772;2023-02-18T04:38:23;1.60;;;1.10;;
46116;SDS011;32591;48.102;11.772;2023-02-18T04:40:50;3.17;;;1.45;;
46116;SDS011;32591;48.102;11.772;2023-02-18T04:43:17;2.75;;;1.25;;
46116;SDS011;32591;48.102;11.772;2023-02-18T04:45:44;2.25;;;1.40;;
46116;SDS011;32591;48.102;11.772;2023-02-18T04:48:12;3.88;;;1.80;;
46116;SDS011;32591;48.102;11.772;2023-02-18T04:50:39;1.90;;;1.10;;
46116;SDS011;32591;48.102;11.772;2023-02-18T04:53:06;2.05;;;1.30;;
46116;SDS011;32591;48.102;11.772;2023-02-18T04:55:34;2.33;;;1.30;;
46116;SDS011;32591;48.102;11.772;2023-02-18T04:58:01;1.90;;;1.02;;
46116;SDS011;32591;48.102;11.772;2023-02-18T05:00:28;2.78;;;1.45;;
46116;SDS011;32591;48.102;11.772;2023-02-18T05:02:55;1.63;;;1.10;;
46116;SDS011;32591;48.102;11.772;2023-02-18T05:05:24;4.15;;;1.20;;
46116;SDS011;32591;48.102;11.772;2023-02-18T05:07:51;1.38;;;1.10;;
46116;SDS011;32591;48.102;11.772;2023-02-18T05:10:18;1.52;;;1.10;;
46116;SDS011;32591;48.102;11.772;2023-02-18T05:12:45;1.15;;;0.90;;
46116;SDS011;32591;48.102;11.772;2023-02-18T05:15:12;1.70;;;1.20;;
46116;SDS011;32591;48.102;11.772;2023-02-18T05:17:39;1.13;;;0.93;;
46116;SDS011;32591;48.102;11.772;2023-02-18T05:20:06;2.47;;;0.98;;
46116;SDS011;32591;48.102;11.772;2023-02-18T05:22:35;1.13;;;0.80;;
46116;SDS011;32591;48.102;11.772;2023-02-18T05:25:04;3.03;;;1.30;;
46116;SDS011;32591;48.102;11.772;2023-02-18T05:27:36;1.52;;;0.90;;
46116;SDS011;32591;48.102;11.772;2023-02-18T05:30:03;2.47;;;1.13;;
46116;SDS011;32591;48.102;11.772;2023-02-18T05:32:31;1.17;;;0.63;;
46116;SDS011;32591;48.102;11.772;2023-02-18T05:34:58;2.50;;;1.23;;
46116;SDS011;32591;48.102;11.772;2023-02-18T05:37:25;0.98;;;0.68;;
46116;SDS011;32591;48.102;11.772;2023-02-18T05:39:54;1.70;;;0.80;;
46116;SDS011;32591;48.102;11.772;2023-02-18T05:42:21;1.60;;;1.02;;
46116;SDS011;32591;48.102;11.772;2023-02-18T05:44:48;2.10;;;0.75;;
46116;SDS011;32591;48.102;11.772;2023-02-18T05:47:14;0.55;;;0.50;;
46116;SDS011;32591;48.102;11.772;2023-02-18T05:49:42;1.02;;;0.68;;
46116;SDS011;32591;48.102;11.772;2023-02-18T05:52:09;1.10;;;0.68;;
46116;SDS011;32591;48.102;11.772;2023-02-18T05:54:37;0.80;;;0.40;;
46116;SDS011;32591;48.102;11.772;2023-02-18T05:57:05;1.27;;;0.70;;
46116;SDS011;32591;48.102;11.772;2023-02-18T05:59:32;1.85;;;0.70;;
46116;SDS011;32591;48.102;11.772;2023-02-18T06:02:00;0.88;;;0.52;;
46116;SDS011;32591;48.102;11.772;2023-02-18T06:04:27;1.38;;;0.65;;
46116;SDS011;32591;48.102;11.772;2023-02-18T06:06:54;0.82;;;0.50;;
46116;SDS011;32591;48.102;11.772;2023-02-18T06:09:21;0.60;;;0.60;;
46116;SDS011;32591;48.102;11.772;2023-02-18T06:11:48;0.45;;;0.45;;
46116;SDS011;32591;48.102;11.772;2023-02-18T06:14:17;0.93;;;0.50;;
46116;SDS011;32591;48.102;11.772;2023-02-18T06:16:44;0.45;;;0.45;;
46116;SDS011;32591;48.102;11.772;2023-02-18T06:19:10;0.73;;;0.60;;
46116;SDS011;32591;48.102;11.772;2023-02-18T06:21:38;0.60;;;0.50;;
46116;SDS011;32591;48.102;11.772;2023-02-18T06:24:05;0.70;;;0.55;;
46116;SDS011;32591;48.102;11.772;2023-02-18T06:26:33;6.80;;;0.90;;
46116;SDS011;32591;48.102;11.772;2023-02-18T06:29:00;1.02;;;0.60;;
46116;SDS011;32591;48.102;11.772;2023-02-18T06:31:28;1.15;;;0.70;;
46116;SDS011;32591;48.102;11.772;2023-02-18T06:33:55;0.95;;;0.60;;
46116;SDS011;32591;48.102;11.772;2023-02-18T06:36:22;0.93;;;0.60;;
46116;SDS011;32591;48.102;11.772;2023-02-18T06:38:49;1.45;;;0.40;;
46116;SDS011;32591;48.102;11.772;2023-02-18T06:41:18;1.70;;;0.52;;
46116;SDS011;32591;48.102;11.772;2023-02-18T06:43:45;0.73;;;0.45;;
46116;SDS011;32591;48.102;11.772;2023-02-18T06:46:12;0.77;;;0.50;;
46116;SDS011;32591;48.102;11.772;2023-02-18T06:48:40;1.42;;;0.63;;
46116;SDS011;32591;48.102;11.772;2023-02-18T06:51:07;0.28;;;0.28;;
46116;SDS011;32591;48.102;11.772;2023-02-18T06:53:34;1.27;;;0.52;;
46116;SDS011;32591;48.102;11.772;2023-02-18T06:56:01;0.98;;;0.40;;
46116;SDS011;32591;48.102;11.772;2023-02-18T06:58:28;0.40;;;0.40;;
46116;SDS011;32591;48.102;11.772;2023-02-18T07:00:55;0.65;;;0.47;;
46116;SDS011;32591;48.102;11.772;2023-02-18T07:03:22;2.30;;;0.68;;
46116;SDS011;32591;48.102;11.772;2023-02-18T07:05:50;1.25;;;0.65;;
46116;SDS011;32591;48.102;11.772;2023-02-18T07:08:18;1.27;;;0.60;;
46116;SDS011;32591;48.102;11.772;2023-02-18T07:10:45;1.98;;;1.00;;
46116;SDS011;32591;48.102;11.772;2023-02-18T07:13:12;4.82;;;2.75;;
46116;SDS011;32591;48.102;11.772;2023-02-18T07:15:39;2.13;;;0.90;;
46116;SDS011;32591;48.102;11.772;2023-02-18T07:18:06;1.42;;;0.45;;
46116;SDS011;32591;48.102;11.772;2023-02-18T07:20:33;1.40;;;0.57;;
46116;SDS011;32591;48.102;11.772;2023-02-18T07:23:02;1.00;;;0.65;;
46116;SDS011;32591;48.102;11.772;2023-02-18T07:25:29;1.67;;;1.05;;
46116;SDS011;32591;48.102;11.772;2023-02-18T07:27:56;0.95;;;0.57;;
46116;SDS011;32591;48.102;11.772;2023-02-18T07:30:22;0.68;;;0.50;;
46116;SDS011;32591;48.102;11.772;2023-02-18T07:32:50;0.40;;;0.40;;
46116;SDS011;32591;48.102;11.772;2023-02-18T07:35:16;0.52;;;0.50;;
46116;SDS011;32591;48.102;11.772;2023-02-18T07:37:55;0.52;;;0.30;;
46116;SDS011;32591;48.102;11.772;2023-02-18T07:40:24;0.43;;;0.32;;
46116;SDS011;32591;48.102;11.772;2023-02-18T07:42:50;0.95;;;0.50;;
46116;SDS011;32591;48.102;11.772;2023-02-18T07:45:17;1.02;;;0.60;;
46116;SDS011;32591;48.102;11.772;2023-02-18T07:47:44;0.30;;;0.30;;
46116;SDS011;32591;48.102;11.772;2023-02-18T07:50:11;0.68;;;0.50;;
46116;SDS011;32591;48.102;11.772;2023-02-18T07:52:38;0.55;;;0.32;;
46116;SDS011;32591;48.102;11.772;2023-02-18T07:55:06;1.00;;;0.40;;
46116;SDS011;32591;48.102;11.772;2023-02-18T07:57:35;0.60;;;0.60;;
46116;SDS011;32591;48.102;11.772;2023-02-18T08:00:21;0.60;;;0.30;;
46116;SDS011;32591;48.102;11.772;2023-02-18T08:02:49;1.45;;;0.50;;
46116;SDS011;32591;48.102;11.772;2023-02-18T08:05:16;0.93;;;0.70;;
46116;SDS011;32591;48.102;11.772;2023-02-18T08:07:43;0.68;;;0.30;;
46116;SDS011;32591;48.102;11.772;2023-02-18T08:10:10;1.00;;;0.57;;
46116;SDS011;32591;48.102;11.772;2023-02-18T08:12:39;0.47;;;0.35;;
46116;SDS011;32591;48.102;11.772;2023-02-18T08:15:06;1.25;;;0.63;;
46116;SDS011;32591;48.102;11.772;2023-02-18T08:17:34;1.73;;;0.65;;
46116;SDS011;32591;48.102;11.772;2023-02-18T08:20:01;1.20;;;0.50;;
46116;SDS011;32591;48.102;11.772;2023-02-18T08:22:28;0.93;;;0.65;;
46116;SDS011;32591;48.102;11.772;2023-02-18T08:24:55;1.50;;;0.60;;
46116;SDS011;32591;48.102;11.772;2023-02-18T08:27:22;0.93;;;0.57;;
46116;SDS011;32591;48.102;11.772;2023-02-18T08:29:51;3.97;;;0.90;;
46116;SDS011;32591;48.102;11.772;2023-02-18T08:32:20;1.27;;;0.60;;
46116;SDS011;32591;48.102;11.772;2023-02-18T08:34:47;1.15;;;0.60;;
46116;SDS011;32591;48.102;11.772;2023-02-18T08:37:14;4.03;;;0.85;;
46116;SDS011;32591;48.102;11.772;2023-02-18T08:39:41;2.35;;;0.50;;
46116;SDS011;32591;48.102;11.772;2023-02-18T08:42:08;0.50;;;0.50;;
46116;SDS011;32591;48.102;11.772;2023-02-18T08:44:35;1.20;;;0.65;;
46116;SDS011;32591;48.102;11.772;2023-02-18T08:47:04;0.85;;;0.75;;
46116;SDS011;32591;48.102;11.772;2023-02-18T08:49:31;0.60;;;0.40;;
46116;SDS011;32591;48.102;11.772;2023-02-18T08:51:58;0.88;;;0.45;;
46116;SDS011;32591;48.102;11.772;2023-02-18T08:54:25;1.27;;;0.57;;
46116;SDS011;32591;48.102;11.772;2023-02-18T08:56:53;2.08;;;1.00;;
46116;SDS011;32591;48.102;11.772;2023-02-18T08:59:21;2.97;;;0.63;;
46116;SDS011;32591;48.102;11.772;2023-02-18T09:01:49;0.60;;;0.38;;
46116;SDS011;32591;48.102;11.772;2023-02-18T09:04:17;0.57;;;0.47;;
46116;SDS011;32591;48.102;11.772;2023-02-18T09:06:45;0.80;;;0.50;;
46116;SDS011;32591;48.102;11.772;2023-02-18T09:09:12;1.30;;;0.57;;
46116;SDS011;32591;48.102;11.772;2023-02-18T09:11:39;1.02;;;0.60;;
46116;SDS011;32591;48.102;11.772;2023-02-18T09:14:06;1.20;;;0.73;;
46116;SDS011;32591;48.102;11.772;2023-02-18T09:16:33;2.78;;;0.60;;
46116;SDS011;32591;48.102;11.772;2023-02-18T09:19:00;1.95;;;0.65;;
46116;SDS011;32591;48.102;11.772;2023-02-18T09:21:28;1.48;;;0.82;;
46116;SDS011;32591;48.102;11.772;2023-02-18T09:23:56;1.48;;;0.80;;
46116;SDS011;32591;48.102;11.772;2023-02-18T09:26:23;4.25;;;0.80;;
46116;SDS011;32591;48.102;11.772;2023-02-18T09:28:52;0.52;;;0.50;;
46116;SDS011;32591;48.102;11.772;2023-02-18T09:31:21;0.95;;;0.57;;
46116;SDS011;32591;48.102;11.772;2023-02-18T09:33:51;1.20;;;0.70;;
46116;SDS011;32591;48.102;11.772;2023-02-18T09:36:20;1.73;;;0.80;;
46116;SDS011;32591;48.102;11.772;2023-02-18T09:38:48;2.80;;;1.23;;
46116;SDS011;32591;48.102;11.772;2023-02-18T09:41:19;2.22;;;0.68;;
46116;SDS011;32591;48.102;11.772;2023-02-18T09:43:54;1.60;;;0.75;;
46116;SDS011;32591;48.102;11.772;2023-02-18T09:46:27;1.33;;;0.80;;
46116;SDS011;32591;48.102;11.772;2023-02-18T09:48:59;0.60;;;0.60;;
46116;SDS011;32591;48.102;11.772;2023-02-18T09:51:28;1.65;;;0.80;;
46116;SDS011;32591;48.102;11.772;2023-02-18T09:53:56;1.58;;;0.88;;
46116;SDS011;32591;48.102;11.772;2023-02-18T09:56:26;2.22;;;0.80;;
46116;SDS011;32591;48.102;11.772;2023-02-18T09:58:57;3.33;;;0.98;;
46116;SDS011;32591;48.102;11.772;2023-02-18T10:01:29;2.17;;;1.00;;
46116;SDS011;32591;48.102;11.772;2023-02-18T10:04:04;3.15;;;0.88;;
46116;SDS011;32591;48.102;11.772;2023-02-18T10:06:39;2.90;;;1.00;;
46116;SDS011;32591;48.102;11.772;2023-02-18T10:09:12;3.08;;;0.75;;
46116;SDS011;32591;48.102;11.772;2023-02-18T10:11:45;2.00;;;0.90;;
46116;SDS011;32591;48.102;11.772;2023-02-18T10:14:15;1.75;;;0.50;;
46116;SDS011;32591;48.102;11.772;2023-02-18T10:16:43;2.35;;;1.15;;
46116;SDS011;32591;48.102;11.772;2023-02-18T10:19:19;1.30;;;0.63;;
46116;SDS011;32591;48.102;11.772;2023-02-18T10:21:51;3.30;;;0.85;;
46116;SDS011;32591;48.102;11.772;2023-02-18T10:24:26;1.33;;;0.52;;
46116;SDS011;32591;48.102;11.772;2023-02-18T10:26:57;2.35;;;1.35;;
46116;SDS011;32591;48.102;11.772;2023-02-18T10:29:24;1.92;;;0.80;;
46116;SDS011;32591;48.102;11.772;2023-02-18T10:31:55;1.55;;;0.80;;
46116;SDS011;32591;48.102;11.772;2023-02-18T10:34:30;4.47;;;1.10;;
46116;SDS011;32591;48.102;11.772;2023-02-18T10:37:12;2.05;;;0.60;;
46116;SDS011;32591;48.102;11.772;2023-02-18T10:40:04;0.95;;;0.55;;
46116;SDS011;32591;48.102;11.772;2023-02-18T10:42:39;2.85;;;0.85;;
46116;SDS011;32591;48.102;11.772;2023-02-18T10:45:21;1.92;;;0.73;;
46116;SDS011;32591;48.102;11.772;2023-02-18T10:48:01;3.92;;;0.90;;
46116;SDS011;32591;48.102;11.772;2023-02-18T10:50:48;0.85;;;0.65;;
46116;SDS011;32591;48.102;11.772;2023-02-18T10:53:17;1.80;;;0.70;;
46116;SDS011;32591;48.102;11.772;2023-02-18T10:55:54;0.80;;;0.50;;
46116;SDS011;32591;48.102;11.772;2023-02-18T10:58:24;1.08;;;0.65;;
46116;SDS011;32591;48.102;11.772;2023-02-18T11:00:56;2.25;;;0.80;;
46116;SDS011;32591;48.102;11.772;2023-02-18T11:03:26;3.00;;;0.50;;
46116;SDS011;32591;48.102;11.772;2023-02-18T11:06:14;1.60;;;0.65;;
46116;SDS011;32591;48.102;11.772;2023-02-18T11:08:46;0.77;;;0.50;;
46116;SDS011;32591;48.102;11.772;2023-02-18T11:11:17;1.80;;;0.55;;
46116;SDS011;32591;48.102;11.772;2023-02-18T11:13:51;1.48;;;0.80;;
46116;SDS011;32591;48.102;11.772;2023-02-18T11:16:20;1.98;;;0.60;;
46116;SDS011;32591;48.102;11.772;2023-02-18T11:18:48;2.65;;;0.88;;
46116;SDS011;32591;48.102;11.772;2023-02-18T11:21:20;1.98;;;0.55;;
46116;SDS011;32591;48.102;11.772;2023-02-18T11:23:55;0.65;;;0.65;;
46116;SDS011;32591;48.102;11.772;2023-02-18T11:26:26;2.53;;;0.70;;
46116;SDS011;32591;48.102;11.772;2023-02-18T11:28:59;2.45;;;0.50;;
46116;SDS011;32591;48.102;11.772;2023-02-18T11:31:31;1.58;;;0.60;;
46116;SDS011;32591;48.102;11.772;2023-02-18T11:34:09;1.27;;;0.80;;
46116;SDS011;32591;48.102;11.772;2023-02-18T11:36:42;1.75;;;0.90;;
46116;SDS011;32591;48.102;11.772;2023-02-18T11:39:16;2.00;;;0.50;;
46116;SDS011;32591;48.102;11.772;2023-02-18T11:44:23;1.13;;;0.50;;
46116;SDS011;32591;48.102;11.772;2023-02-18T11:46:55;1.00;;;0.60;;
46116;SDS011;32591;48.102;11.772;2023-02-18T11:49:26;0.70;;;0.70;;
46116;SDS011;32591;48.102;11.772;2023-02-18T11:52:02;1.30;;;0.50;;
46116;SDS011;32591;48.102;11.772;2023-02-18T11:54:34;1.23;;;0.70;;
46116;SDS011;32591;48.102;11.772;2023-02-18T11:57:04;2.05;;;0.80;;
46116;SDS011;32591;48.102;11.772;2023-02-18T11:59:35;2.40;;;0.88;;
46116;SDS011;32591;48.102;11.772;2023-02-18T12:02:10;2.15;;;0.70;;
46116;SDS011;32591;48.102;11.772;2023-02-18T12:04:55;1.70;;;0.65;;
46116;SDS011;32591;48.102;11.772;2023-02-18T12:07:29;1.73;;;0.80;;
46116;SDS011;32591;48.102;11.772;2023-02-18T12:10:09;2.15;;;0.77;;
46116;SDS011;32591;48.102;11.772;2023-02-18T12:12:43;2.50;;;0.88;;
46116;SDS011;32591;48.102;11.772;2023-02-18T12:15:15;1.75;;;0.50;;
46116;SDS011;32591;48.102;11.772;2023-02-18T12:17:48;2.92;;;0.70;;
46116;SDS011;32591;48.102;11.772;2023-02-18T12:20:35;2.30;;;0.63;;
46116;SDS011;32591;48.102;11.772;2023-02-18T12:23:21;3.60;;;1.30;;
46116;SDS011;32591;48.102;11.772;2023-02-18T12:25:56;2.28;;;1.10;;
46116;SDS011;32591;48.102;11.772;2023-02-18T12:31:32;1.80;;;0.50;;
46116;SDS011;32591;48.102;11.772;2023-02-18T12:34:15;0.43;;;0.40;;
46116;SDS011;32591;48.102;11.772;2023-02-18T12:37:05;2.75;;;0.65;;
46116;SDS011;32591;48.102;11.772;2023-02-18T12:39:53;0.98;;;0.60;;
46116;SDS011;32591;48.102;11.772;2023-02-18T12:42:38;1.02;;;0.63;;
46116;SDS011;32591;48.102;11.772;2023-02-18T12:45:29;2.13;;;0.60;;
46116;SDS011;32591;48.102;11.772;2023-02-18T12:51:18;1.95;;;0.75;;
46116;SDS011;32591;48.102;11.772;2023-02-18T12:54:08;2.30;;;0.73;;
46116;SDS011;32591;48.102;11.772;2023-02-18T12:57:08;2.40;;;0.70;;
46116;SDS011;32591;48.102;11.772;2023-02-18T12:59:57;0.90;;;0.55;;
46116;SDS011;32591;48.102;11.772;2023-02-18T13:02:46;5.20;;;2.40;;
46116;SDS011;32591;48.102;11.772;2023-02-18T13:05:42;5.90;;;0.55;;
46116;SDS011;32591;48.102;11.772;2023-02-18T13:11:15;2.45;;;0.60;;
46116;SDS011;32591;48.102;11.772;2023-02-18T13:13:53;1.52;;;0.70;;
46116;SDS011;32591;48.102;11.772;2023-02-18T13:16:26;1.27;;;0.52;;
46116;SDS011;32591;48.102;11.772;2023-02-18T13:18:57;2.88;;;1.17;;
46116;SDS011;32591;48.102;11.772;2023-02-18T13:21:29;1.83;;;0.47;;
46116;SDS011;32591;48.102;11.772;2023-02-18T13:23:58;2.25;;;0.80;;
46116;SDS011;32591;48.102;11.772;2023-02-18T13:26:30;1.85;;;0.68;;
46116;SDS011;32591;48.102;11.772;2023-02-18T13:29:03;2.83;;;0.70;;
46116;SDS011;32591;48.102;11.772;2023-02-18T13:31:46;1.55;;;0.50;;
46116;SDS011;32591;48.102;11.772;2023-02-18T13:34:30;1.88;;;0.70;;
46116;SDS011;32591;48.102;11.772;2023-02-18T13:37:03;2.55;;;0.60;;
46116;SDS011;32591;48.102;11.772;2023-02-18T13:39:47;1.17;;;0.75;;
46116;SDS011;32591;48.102;11.772;2023-02-18T13:42:29;2.33;;;0.90;;
46116;SDS011;32591;48.102;11.772;2023-02-18T13:47:54;0.85;;;0.60;;
46116;SDS011;32591;48.102;11.772;2023-02-18T13:50:24;2.10;;;0.80;;
46116;SDS011;32591;48.102;11.772;2023-02-18T13:53:10;1.90;;;0.63;;
46116;SDS011;32591;48.102;11.772;2023-02-18T13:55:47;2.45;;;0.82;;
46116;SDS011;32591;48.102;11.772;2023-02-18T13:58:21;1.52;;;0.70;;
46116;SDS011;32591;48.102;11.772;2023-02-18T14:00:52;0.98;;;0.60;;
46116;SDS011;32591;48.102;11.772;2023-02-18T14:03:31;1.38;;;0.80;;
46116;SDS011;32591;48.102;11.772;2023-02-18T14:06:22;4.18;;;1.67;;
46116;SDS011;32591;48.102;11.772;2023-02-18T14:09:02;1.02;;;0.63;;
46116;SDS011;32591;48.102;11.772;2023-02-18T14:12:14;0.80;;;0.50;;
46116;SDS011;32591;48.102;11.772;2023-02-18T14:14:52;1.45;;;0.55;;
46116;SDS011;32591;48.102;11.772;2023-02-18T14:20:28;5.18;;;0.60;;
46116;SDS011;32591;48.102;11.772;2023-02-18T14:23:36;0.80;;;0.63;;
46116;SDS011;32591;48.102;11.772;2023-02-18T14:26:27;2.17;;;1.17;;
46116;SDS011;32591;48.102;11.772;2023-02-18T14:28:59;0.95;;;0.60;;
46116;SDS011;32591;48.102;11.772;2023-02-18T14:31:43;5.40;;;1.13;;
46116;SDS011;32591;48.102;11.772;2023-02-18T14:34:28;1.40;;;0.77;;
46116;SDS011;32591;48.102;11.772;2023-02-18T14:40:50;1.58;;;1.02;;
46116;SDS011;32591;48.102;11.772;2023-02-18T14:43:43;1.73;;;0.70;;
46116;SDS011;32591;48.102;11.772;2023-02-18T14:46:42;2.15;;;0.90;;
46116;SDS011;32591;48.102;11.772;2023-02-18T14:49:29;1.55;;;0.73;;
46116;SDS011;32591;48.102;11.772;2023-02-18T14:52:10;2.40;;;0.80;;
46116;SDS011;32591;48.102;11.772;2023-02-18T14:54:46;1.50;;;0.85;;
46116;SDS011;32591;48.102;11.772;2023-02-18T14:57:15;1.25;;;0.73;;
46116;SDS011;32591;48.102;11.772;2023-02-18T14:59:44;1.92;;;0.98;;
46116;SDS011;32591;48.102;11.772;2023-02-18T15:02:14;2.15;;;1.00;;
46116;SDS011;32591;48.102;11.772;2023-02-18T15:04:45;2.70;;;1.00;;
46116;SDS011;32591;48.102;11.772;2023-02-18T15:07:16;1.65;;;0.88;;
46116;SDS011;32591;48.102;11.772;2023-02-18T15:09:47;3.10;;;0.82;;
46116;SDS011;32591;48.102;11.772;2023-02-18T15:12:16;4.35;;;0.95;;
46116;SDS011;32591;48.102;11.772;2023-02-18T15:14:46;1.38;;;0.90;;
46116;SDS011;32591;48.102;11.772;2023-02-18T15:17:17;1.67;;;0.88;;
46116;SDS011;32591;48.102;11.772;2023-02-18T15:19:48;4.75;;;1.00;;
46116;SDS011;32591;48.102;11.772;2023-02-18T15:22:19;1.45;;;0.73;;
46116;SDS011;32591;48.102;11.772;2023-02-18T15:24:50;1.55;;;0.65;;
46116;SDS011;32591;48.102;11.772;2023-02-18T15:27:20;0.93;;;0.60;;